Kathryn, North Dakota
Current Conditions -  °F | °C
As of 9:35 AM on Friday 24 Oct 2014 (Local Time) from KBAC Reporting Station
Clear Clear  
Wind Chill: 44°   Ceiling: Unl
Heat Index: 48°   Visibility: 10mi
Dew Point: 41°   Wind: 10mph
Humidity: 76%   Direction: 270°W
Pressure: 29.82"   Gusts: NA
Location:  46.68°N, 97.97°W
Report Text: KBAC 241435Z AUTO 27009KT 10SM CLR 09/05 A2982 RMK AO2
Loading
Personal Weather Stations






























Interactive Weather Map
Tropical Storm Tracking
New forecast layout! Learn more

10-Day Weather Forecast

Advertisements
Track Severe Weather on mobile